createdAt,value
2018-02-07T00:01:51.785Z,0.20
2018-02-07T00:04:19.246Z,0.10
2018-02-07T00:06:46.697Z,0.10
2018-02-07T00:09:14.148Z,0.10
2018-02-07T00:11:41.610Z,0.20
2018-02-07T00:14:09.090Z,0.20
2018-02-07T00:16:36.549Z,0.10
2018-02-07T00:19:03.997Z,0.10
2018-02-07T00:21:31.454Z,0.10
2018-02-07T00:23:58.901Z,0.10
2018-02-07T00:26:26.365Z,0.10
2018-02-07T00:28:53.818Z,0.10
2018-02-07T00:31:21.276Z,0.10
2018-02-07T00:33:48.730Z,0.10
2018-02-07T00:36:16.192Z,0.10
2018-02-07T00:38:43.642Z,0.10
2018-02-07T00:41:11.157Z,0.10
2018-02-07T00:43:38.604Z,0.10
2018-02-07T00:46:06.057Z,0.10
2018-02-07T00:48:33.520Z,0.10
2018-02-07T00:51:00.981Z,0.10
2018-02-07T00:53:28.445Z,0.10
2018-02-07T00:55:56.664Z,0.10
2018-02-07T00:58:24.124Z,0.10
2018-02-07T01:00:51.576Z,0.10
2018-02-07T01:03:19.040Z,0.10
2018-02-07T01:05:46.488Z,0.10
2018-02-07T01:08:13.946Z,0.10
2018-02-07T01:10:41.401Z,0.10
2018-02-07T01:13:08.867Z,0.00
2018-02-07T01:15:36.340Z,0.00
2018-02-07T01:18:03.804Z,0.00
2018-02-07T01:20:31.252Z,0.00
2018-02-07T01:22:58.710Z,0.00
2018-02-07T01:25:26.197Z,0.00
2018-02-07T01:27:53.657Z,0.00
2018-02-07T01:30:21.877Z,0.00
2018-02-07T01:32:49.333Z,0.00
2018-02-07T01:35:16.789Z,0.00
2018-02-07T01:37:44.248Z,0.00
2018-02-07T01:40:11.701Z,0.00
2018-02-07T01:42:39.182Z,0.00
2018-02-07T01:45:06.641Z,0.00
2018-02-07T01:47:34.101Z,0.00
2018-02-07T01:50:01.548Z,0.00
2018-02-07T01:52:29.018Z,0.00
2018-02-07T01:54:56.488Z,-0.10
2018-02-07T01:57:23.945Z,0.00
2018-02-07T01:59:51.408Z,-0.10
2018-02-07T02:02:19.649Z,-0.10
2018-02-07T02:04:47.145Z,-0.10
2018-02-07T02:07:15.364Z,-0.20
2018-02-07T02:09:42.829Z,-0.10
2018-02-07T02:12:10.292Z,-0.10
2018-02-07T02:14:37.745Z,-0.10
2018-02-07T02:17:05.201Z,-0.10
2018-02-07T02:19:32.667Z,-0.10
2018-02-07T02:22:00.141Z,-0.10
2018-02-07T02:24:27.629Z,-0.20
2018-02-07T02:26:55.853Z,-0.20
2018-02-07T02:29:23.317Z,-0.20
2018-02-07T02:31:50.781Z,-0.20
2018-02-07T02:34:18.252Z,-0.30
2018-02-07T02:36:45.712Z,-0.30
2018-02-07T02:39:13.169Z,-0.30
2018-02-07T02:41:41.426Z,-0.30
2018-02-07T02:44:08.889Z,-0.40
2018-02-07T02:46:36.349Z,-0.30
2018-02-07T02:49:03.842Z,-0.30
2018-02-07T02:51:31.321Z,-0.30
2018-02-07T02:53:58.764Z,-0.30
2018-02-07T02:56:26.232Z,-0.30
2018-02-07T02:58:53.693Z,-0.30
2018-02-07T03:01:21.172Z,-0.30
2018-02-07T03:03:48.640Z,-0.40
2018-02-07T03:06:16.110Z,-0.40
2018-02-07T03:08:43.566Z,-0.40
2018-02-07T03:11:11.028Z,-0.40
2018-02-07T03:13:39.252Z,-0.40
2018-02-07T03:16:06.725Z,-0.40
2018-02-07T03:18:34.184Z,-0.40
2018-02-07T03:21:02.473Z,-0.30
2018-02-07T03:23:29.929Z,-0.30
2018-02-07T03:25:57.393Z,-0.30
2018-02-07T03:28:24.854Z,-0.30
2018-02-07T03:30:52.317Z,-0.30
2018-02-07T03:33:20.542Z,-0.40
2018-02-07T03:35:48.005Z,-0.40
2018-02-07T03:38:15.470Z,-0.40
2018-02-07T03:40:42.936Z,-0.50
2018-02-07T03:43:10.426Z,-0.50
2018-02-07T03:45:38.648Z,-0.50
2018-02-07T03:48:06.104Z,-0.50
2018-02-07T03:50:33.568Z,-0.50
2018-02-07T03:53:01.020Z,-0.50
2018-02-07T03:55:28.497Z,-0.50
2018-02-07T03:57:55.981Z,-0.50
2018-02-07T04:00:24.218Z,-0.60
2018-02-07T04:02:51.683Z,-0.60
2018-02-07T04:05:19.154Z,-0.60
2018-02-07T04:07:46.616Z,-0.60
2018-02-07T04:10:14.065Z,-0.60
2018-02-07T04:12:41.533Z,-0.50
2018-02-07T04:15:09.761Z,-0.60
2018-02-07T04:17:37.229Z,-0.60
2018-02-07T04:20:04.686Z,-0.60
2018-02-07T04:22:32.154Z,-0.60
2018-02-07T04:24:59.608Z,-0.70
2018-02-07T04:27:27.073Z,-0.60
2018-02-07T04:29:54.539Z,-0.60
2018-02-07T04:34:56.697Z,-0.70
2018-02-07T04:37:24.163Z,-0.70
2018-02-07T04:39:51.617Z,-0.70
2018-02-07T04:42:19.075Z,-0.70
2018-02-07T04:44:46.554Z,-0.70
2018-02-07T04:47:14.016Z,-0.70
2018-02-07T04:49:41.480Z,-0.70
2018-02-07T04:52:09.795Z,-0.70
2018-02-07T04:54:37.234Z,-0.80
2018-02-07T04:57:04.708Z,-0.80
2018-02-07T04:59:32.613Z,-0.80
2018-02-07T05:02:00.086Z,-0.70
2018-02-07T05:04:27.536Z,-0.70
2018-02-07T05:06:55.000Z,-0.70
2018-02-07T05:09:22.453Z,-0.70
2018-02-07T05:11:49.931Z,-0.70
2018-02-07T05:14:18.158Z,-0.70
2018-02-07T05:16:45.636Z,-0.70
2018-02-07T05:19:13.116Z,-0.70
2018-02-07T05:21:41.351Z,-0.70
2018-02-07T05:24:08.805Z,-0.70
2018-02-07T05:26:36.260Z,-0.70
2018-02-07T05:29:03.725Z,-0.80
2018-02-07T05:31:31.188Z,-0.80
2018-02-07T05:33:58.663Z,-0.80
2018-02-07T05:36:26.886Z,-0.80
2018-02-07T05:38:54.349Z,-0.80
2018-02-07T05:41:21.809Z,-0.80
2018-02-07T05:43:49.279Z,-0.80
2018-02-07T05:46:17.505Z,-0.80
2018-02-07T05:48:44.968Z,-0.80
2018-02-07T05:51:12.429Z,-0.80
2018-02-07T05:53:39.901Z,-0.80
2018-02-07T05:56:07.396Z,-0.80
2018-02-07T05:58:34.836Z,-0.80
2018-02-07T06:01:02.341Z,-0.80
2018-02-07T06:03:29.785Z,-0.80
2018-02-07T06:05:58.011Z,-0.80
2018-02-07T06:08:25.481Z,-0.70
2018-02-07T06:10:52.953Z,-0.70
2018-02-07T06:13:20.414Z,-0.70
2018-02-07T06:15:47.935Z,-0.70
2018-02-07T06:18:15.410Z,-0.70
2018-02-07T06:20:42.873Z,-0.80
2018-02-07T06:23:10.342Z,-0.80
2018-02-07T06:25:37.817Z,-0.80
2018-02-07T06:28:06.046Z,-0.80
2018-02-07T06:30:33.517Z,-0.80
2018-02-07T06:33:00.989Z,-0.80
2018-02-07T06:35:28.458Z,-0.80
2018-02-07T06:37:55.905Z,-0.80
2018-02-07T06:40:23.380Z,-0.80
2018-02-07T06:42:51.603Z,-0.80
2018-02-07T06:45:19.061Z,-0.80
2018-02-07T06:47:46.529Z,-0.80
2018-02-07T06:50:14.006Z,-0.80
2018-02-07T06:52:41.477Z,-0.80
2018-02-07T06:55:09.718Z,-0.80
2018-02-07T06:57:37.187Z,-0.80
2018-02-07T07:00:04.675Z,-0.80
2018-02-07T07:02:32.906Z,-0.80
2018-02-07T07:05:00.388Z,-0.80
2018-02-07T07:07:27.853Z,-0.70
2018-02-07T07:09:56.086Z,-0.70
2018-02-07T07:12:23.546Z,-0.70
2018-02-07T07:14:51.013Z,-0.70
2018-02-07T07:17:18.480Z,-0.60
2018-02-07T07:19:45.941Z,-0.60
2018-02-07T07:22:13.397Z,-0.50
2018-02-07T07:24:40.860Z,-0.50
2018-02-07T07:27:08.321Z,-0.50
2018-02-07T07:29:36.558Z,-0.50
2018-02-07T07:32:04.013Z,-0.50
2018-02-07T07:34:31.474Z,-0.40
2018-02-07T07:36:58.944Z,-0.40
2018-02-07T07:39:26.409Z,-0.50
2018-02-07T07:41:53.877Z,-0.50
2018-02-07T07:44:21.335Z,-0.40
2018-02-07T07:46:48.789Z,-0.40
2018-02-07T07:49:17.013Z,-0.40
2018-02-07T07:51:44.486Z,-0.40
2018-02-07T07:54:11.941Z,-0.30
2018-02-07T07:56:39.406Z,-0.30
2018-02-07T07:59:06.864Z,-0.30
2018-02-07T08:01:34.329Z,-0.30
2018-02-07T08:04:01.795Z,-0.20
2018-02-07T08:06:29.266Z,-0.20
2018-02-07T08:08:56.716Z,-0.10
2018-02-07T08:11:24.186Z,-0.10
2018-02-07T08:13:52.414Z,-0.10
2018-02-07T08:16:20.641Z,-0.10
2018-02-07T08:18:48.851Z,-0.10
2018-02-07T08:21:16.324Z,-0.10
2018-02-07T08:23:43.780Z,0.00
2018-02-07T08:26:11.237Z,0.00
2018-02-07T08:28:38.692Z,0.00
2018-02-07T08:31:06.177Z,0.00
2018-02-07T08:33:33.616Z,0.10
2018-02-07T08:36:01.069Z,0.10
2018-02-07T08:38:28.529Z,0.10
2018-02-07T08:40:55.977Z,0.20
2018-02-07T08:43:23.431Z,0.30
2018-02-07T08:45:50.885Z,0.30
2018-02-07T08:48:18.343Z,0.40
2018-02-07T08:50:45.800Z,0.40
2018-02-07T08:53:13.265Z,0.50
2018-02-07T08:55:40.755Z,0.60
2018-02-07T08:58:08.981Z,0.70
2018-02-07T09:00:36.442Z,0.70
2018-02-07T09:03:03.924Z,0.70
2018-02-07T09:05:31.369Z,0.80
2018-02-07T09:07:58.825Z,0.80
2018-02-07T09:10:26.272Z,0.70
2018-02-07T09:12:53.744Z,0.70
2018-02-07T09:15:21.254Z,0.70
2018-02-07T09:17:48.668Z,0.70
2018-02-07T09:20:16.120Z,0.70
2018-02-07T09:22:43.591Z,0.70
2018-02-07T09:25:11.830Z,0.70
2018-02-07T09:27:39.273Z,0.70
2018-02-07T09:30:06.740Z,0.70
2018-02-07T09:32:34.965Z,0.80
2018-02-07T09:35:03.188Z,0.80
2018-02-07T09:37:30.634Z,0.80
2018-02-07T09:39:58.093Z,0.80
2018-02-07T09:42:25.557Z,0.80
2018-02-07T09:44:53.768Z,0.80
2018-02-07T09:47:21.238Z,0.80
2018-02-07T09:49:49.452Z,0.90
2018-02-07T09:52:16.919Z,0.90
2018-02-07T09:54:44.377Z,1.00
2018-02-07T09:57:12.596Z,1.10
2018-02-07T09:59:40.837Z,1.10
2018-02-07T10:02:08.287Z,1.10
2018-02-07T10:04:35.744Z,1.10
2018-02-07T10:07:03.192Z,1.20
2018-02-07T10:09:30.644Z,1.30
2018-02-07T10:11:58.098Z,1.30
2018-02-07T10:14:25.569Z,1.40
2018-02-07T10:16:53.037Z,1.40
2018-02-07T10:19:20.497Z,1.50
2018-02-07T10:21:47.945Z,1.50
2018-02-07T10:24:15.400Z,1.50
2018-02-07T10:26:42.852Z,1.50
2018-02-07T10:29:10.324Z,1.50
2018-02-07T10:31:37.774Z,1.50
2018-02-07T10:34:05.230Z,1.50
2018-02-07T10:36:32.685Z,1.50
2018-02-07T10:39:00.168Z,1.50
2018-02-07T10:41:27.620Z,1.50
2018-02-07T10:43:55.065Z,1.60
2018-02-07T10:46:22.509Z,1.60
2018-02-07T10:48:49.964Z,1.70
2018-02-07T10:51:17.420Z,1.70
2018-02-07T10:53:44.873Z,1.80
2018-02-07T10:56:12.342Z,1.80
2018-02-07T10:58:39.798Z,1.80
2018-02-07T11:01:07.253Z,1.90
2018-02-07T11:03:34.702Z,2.00
2018-02-07T11:06:02.165Z,2.00
2018-02-07T11:08:29.631Z,2.00
2018-02-07T11:10:57.081Z,2.00
2018-02-07T11:13:24.533Z,2.10
2018-02-07T11:15:51.997Z,2.10
2018-02-07T11:18:19.452Z,2.10
2018-02-07T11:20:46.914Z,2.20
2018-02-07T11:23:14.356Z,2.20
2018-02-07T11:25:41.817Z,2.20
2018-02-07T11:28:09.269Z,2.20
2018-02-07T11:30:36.729Z,2.30
2018-02-07T11:33:04.197Z,2.30
2018-02-07T11:35:31.649Z,2.30
2018-02-07T11:37:59.106Z,2.20
2018-02-07T11:40:26.558Z,2.20
2018-02-07T11:42:54.017Z,2.10
2018-02-07T11:45:21.475Z,2.10
2018-02-07T11:47:48.922Z,2.10
2018-02-07T11:50:16.381Z,2.00
2018-02-07T11:52:43.824Z,2.10
2018-02-07T11:55:11.289Z,2.10
2018-02-07T11:57:38.756Z,2.20
2018-02-07T12:00:06.205Z,2.20
2018-02-07T12:02:33.654Z,2.30
2018-02-07T12:05:01.106Z,2.40
2018-02-07T12:07:28.562Z,2.50
2018-02-07T12:09:56.028Z,2.60
2018-02-07T12:12:23.478Z,2.60
2018-02-07T12:14:50.929Z,2.60
2018-02-07T12:17:18.392Z,2.70
2018-02-07T12:19:45.840Z,2.70
2018-02-07T12:22:13.301Z,2.70
2018-02-07T12:24:40.749Z,2.70
2018-02-07T12:27:08.200Z,2.70
2018-02-07T12:29:35.656Z,2.70
2018-02-07T12:32:03.112Z,2.60
2018-02-07T12:34:30.568Z,2.60
2018-02-07T12:36:58.032Z,2.60
2018-02-07T12:39:25.480Z,2.50
2018-02-07T12:41:52.940Z,2.50
2018-02-07T12:44:20.390Z,2.50
2018-02-07T12:46:47.886Z,2.40
2018-02-07T12:49:15.308Z,2.30
2018-02-07T12:51:42.768Z,2.30
2018-02-07T12:54:10.219Z,2.30
2018-02-07T12:56:37.680Z,2.30
2018-02-07T12:59:05.137Z,2.20
2018-02-07T13:01:32.607Z,2.20
2018-02-07T13:04:00.154Z,2.20
2018-02-07T13:06:27.597Z,2.20
2018-02-07T13:08:55.061Z,2.30
2018-02-07T13:11:22.509Z,2.30
2018-02-07T13:13:49.958Z,2.30
2018-02-07T13:16:17.416Z,2.30
2018-02-07T13:18:44.990Z,2.30
2018-02-07T13:21:12.440Z,2.30
2018-02-07T13:23:39.890Z,2.30
2018-02-07T13:26:07.344Z,2.40
2018-02-07T13:28:34.801Z,2.50
2018-02-07T13:31:02.248Z,2.50
2018-02-07T13:33:30.473Z,2.70
2018-02-07T13:35:57.921Z,2.70
2018-02-07T13:38:25.381Z,2.80
2018-02-07T13:40:52.846Z,2.80
2018-02-07T13:43:20.313Z,2.80
2018-02-07T13:45:47.769Z,2.80
2018-02-07T13:48:15.232Z,2.70
2018-02-07T13:50:42.681Z,2.70
2018-02-07T13:53:10.149Z,2.70
2018-02-07T13:55:37.612Z,2.70
2018-02-07T13:58:05.835Z,2.70
2018-02-07T14:00:38.910Z,2.60
2018-02-07T14:03:06.364Z,2.60
2018-02-07T14:05:33.817Z,2.60
2018-02-07T14:08:01.285Z,2.70
2018-02-07T14:10:28.728Z,2.70
2018-02-07T14:12:56.195Z,2.70
2018-02-07T14:15:23.640Z,2.70
2018-02-07T14:17:51.096Z,2.70
2018-02-07T14:20:18.552Z,2.70
2018-02-07T14:22:46.024Z,2.70
2018-02-07T14:25:13.473Z,2.80
2018-02-07T14:27:40.920Z,2.80
2018-02-07T14:30:09.145Z,2.80
2018-02-07T14:32:36.598Z,2.80
2018-02-07T14:35:04.058Z,2.80
2018-02-07T14:37:31.511Z,2.80
2018-02-07T14:39:58.962Z,2.80
2018-02-07T14:42:27.177Z,2.90
2018-02-07T14:44:55.403Z,2.90
2018-02-07T14:47:22.848Z,2.90
2018-02-07T14:49:50.305Z,2.80
2018-02-07T14:52:17.762Z,2.80
2018-02-07T14:54:45.222Z,2.80
2018-02-07T14:57:12.673Z,2.80
2018-02-07T14:59:40.128Z,2.80
2018-02-07T15:02:07.575Z,2.80
2018-02-07T15:04:35.042Z,2.80
2018-02-07T15:07:02.488Z,2.80
2018-02-07T15:09:29.955Z,2.80
2018-02-07T15:11:57.400Z,2.80
2018-02-07T15:14:24.859Z,2.80
2018-02-07T15:16:52.309Z,2.80
2018-02-07T15:19:19.772Z,2.80
2018-02-07T15:21:47.225Z,2.70
2018-02-07T15:24:14.673Z,2.70
2018-02-07T15:26:42.898Z,2.70
2018-02-07T15:29:10.346Z,2.70
2018-02-07T15:31:37.802Z,2.70
2018-02-07T15:34:06.018Z,2.60
2018-02-07T15:36:34.244Z,2.60
2018-02-07T15:39:01.693Z,2.60
2018-02-07T15:41:29.149Z,2.50
2018-02-07T15:43:56.608Z,2.50
2018-02-07T15:46:24.066Z,2.50
2018-02-07T15:48:51.526Z,2.50
2018-02-07T15:51:18.986Z,2.50
2018-02-07T15:53:46.437Z,2.40
2018-02-07T15:56:13.894Z,2.40
2018-02-07T15:58:41.351Z,2.40
2018-02-07T16:01:08.809Z,2.30
2018-02-07T16:03:36.261Z,2.30
2018-02-07T16:06:03.721Z,2.30
2018-02-07T16:08:31.173Z,2.30
2018-02-07T16:10:58.643Z,2.30
2018-02-07T16:13:26.090Z,2.30
2018-02-07T16:15:53.549Z,2.30
2018-02-07T16:18:20.997Z,2.30
2018-02-07T16:20:48.452Z,2.30
2018-02-07T16:23:15.912Z,2.20
2018-02-07T16:25:43.369Z,2.20
2018-02-07T16:28:10.815Z,2.20
2018-02-07T16:30:38.286Z,2.20
2018-02-07T16:33:05.736Z,2.20
2018-02-07T16:35:33.189Z,2.20
2018-02-07T16:38:00.648Z,2.20
2018-02-07T16:40:28.101Z,2.20
2018-02-07T16:42:55.560Z,2.20
2018-02-07T16:45:23.009Z,2.10
2018-02-07T16:47:50.472Z,2.10
2018-02-07T16:50:17.927Z,2.10
2018-02-07T16:52:45.387Z,2.10
2018-02-07T16:55:12.842Z,2.10
2018-02-07T16:57:40.307Z,2.10
2018-02-07T17:00:07.749Z,2.10
2018-02-07T17:02:35.205Z,2.10
2018-02-07T17:05:02.670Z,2.10
2018-02-07T17:07:30.225Z,2.10
2018-02-07T17:09:57.661Z,2.10
2018-02-07T17:12:25.120Z,2.10
2018-02-07T17:14:52.569Z,2.10
2018-02-07T17:17:20.792Z,2.10
2018-02-07T17:19:48.244Z,2.00
2018-02-07T17:22:15.713Z,2.00
2018-02-07T17:24:43.152Z,2.00
2018-02-07T17:27:11.153Z,2.00
2018-02-07T17:29:38.604Z,2.00
2018-02-07T17:32:06.069Z,2.00
2018-02-07T17:34:33.513Z,1.90
2018-02-07T17:37:00.970Z,1.90
2018-02-07T17:39:28.420Z,1.90
2018-02-07T17:41:55.868Z,1.90
2018-02-07T17:44:23.320Z,1.90
2018-02-07T17:46:50.805Z,1.90
2018-02-07T17:49:18.256Z,1.90
2018-02-07T17:51:45.700Z,1.90
2018-02-07T17:54:13.156Z,1.90
2018-02-07T17:56:40.634Z,1.90
2018-02-07T17:59:08.064Z,1.80
2018-02-07T18:01:35.512Z,1.90
2018-02-07T18:04:02.968Z,1.80
2018-02-07T18:06:30.416Z,1.80
2018-02-07T18:08:57.883Z,1.80
2018-02-07T18:11:25.332Z,1.80
2018-02-07T18:13:52.797Z,1.80
2018-02-07T18:16:20.240Z,1.80
2018-02-07T18:18:47.703Z,1.80
2018-02-07T18:21:15.149Z,1.80
2018-02-07T18:23:43.449Z,1.80
2018-02-07T18:26:10.901Z,1.80
2018-02-07T18:28:38.357Z,1.80
2018-02-07T18:31:05.808Z,1.80
2018-02-07T18:33:33.265Z,1.80
2018-02-07T18:36:00.729Z,1.80
2018-02-07T18:38:28.198Z,1.70
2018-02-07T18:40:55.723Z,1.70
2018-02-07T18:43:23.180Z,1.70
2018-02-07T18:45:50.625Z,1.70
2018-02-07T18:48:18.076Z,1.70
2018-02-07T18:50:45.529Z,1.70
2018-02-07T18:53:12.976Z,1.70
2018-02-07T18:55:41.212Z,1.70
2018-02-07T18:58:08.660Z,1.70
2018-02-07T19:00:36.127Z,1.70
2018-02-07T19:03:03.572Z,1.70
2018-02-07T19:05:31.059Z,1.70
2018-02-07T19:07:58.492Z,1.70
2018-02-07T19:10:25.953Z,1.70
2018-02-07T19:12:53.429Z,1.70
2018-02-07T19:15:20.876Z,1.70
2018-02-07T19:17:48.328Z,1.70
2018-02-07T19:20:15.793Z,1.70
2018-02-07T19:22:43.246Z,1.70
2018-02-07T19:25:10.707Z,1.70
2018-02-07T19:27:38.153Z,1.70
2018-02-07T19:30:05.633Z,1.70
2018-02-07T19:32:33.107Z,1.70
2018-02-07T19:35:00.540Z,1.70
2018-02-07T19:37:27.996Z,1.70
2018-02-07T19:39:55.457Z,1.60
2018-02-07T19:42:23.687Z,1.60
2018-02-07T19:44:51.182Z,1.60
2018-02-07T19:47:18.633Z,1.60
2018-02-07T19:49:46.092Z,1.60
2018-02-07T19:52:13.544Z,1.60
2018-02-07T19:54:41.004Z,1.60
2018-02-07T19:57:08.455Z,1.60
2018-02-07T19:59:35.916Z,1.60
2018-02-07T20:04:37.221Z,1.60
2018-02-07T20:07:04.674Z,1.60
2018-02-07T20:09:32.133Z,1.60
2018-02-07T20:11:59.597Z,1.60
2018-02-07T20:14:27.053Z,1.60
2018-02-07T20:16:54.515Z,1.60
2018-02-07T20:19:21.969Z,1.60
2018-02-07T20:21:49.437Z,1.60
2018-02-07T20:24:16.883Z,1.60
2018-02-07T20:26:44.337Z,1.60
2018-02-07T20:29:11.788Z,1.60
2018-02-07T20:31:39.254Z,1.60
2018-02-07T20:34:06.719Z,1.60
2018-02-07T20:36:34.213Z,1.60
2018-02-07T20:39:01.666Z,1.60
2018-02-07T20:41:29.120Z,1.60
2018-02-07T20:43:56.564Z,1.60
2018-02-07T20:46:24.078Z,1.60
2018-02-07T20:48:52.287Z,1.60
2018-02-07T20:51:19.749Z,1.60
2018-02-07T20:53:47.207Z,1.60
2018-02-07T20:56:14.678Z,1.60
2018-02-07T20:58:42.125Z,1.60
2018-02-07T21:01:09.596Z,1.60
2018-02-07T21:03:37.044Z,1.60
2018-02-07T21:06:04.496Z,1.60
2018-02-07T21:08:31.965Z,1.60
2018-02-07T21:10:59.428Z,1.70
2018-02-07T21:13:26.879Z,1.60
2018-02-07T21:15:54.344Z,1.60
2018-02-07T21:18:21.788Z,1.60
2018-02-07T21:20:49.241Z,1.70
2018-02-07T21:23:16.705Z,1.60
2018-02-07T21:25:44.156Z,1.70
2018-02-07T21:28:11.609Z,1.70
2018-02-07T21:30:39.820Z,1.70
2018-02-07T21:33:08.046Z,1.60
2018-02-07T21:35:35.499Z,1.60
2018-02-07T21:38:02.960Z,1.60
2018-02-07T21:40:30.499Z,1.60
2018-02-07T21:42:57.951Z,1.60
2018-02-07T21:45:25.396Z,1.70
2018-02-07T21:47:52.861Z,1.70
2018-02-07T21:50:20.304Z,1.70
2018-02-07T21:52:47.762Z,1.60
2018-02-07T21:55:15.217Z,1.70
2018-02-07T21:57:42.678Z,1.60
2018-02-07T22:00:10.152Z,1.60
2018-02-07T22:02:37.612Z,1.60
2018-02-07T22:05:05.074Z,1.60
2018-02-07T22:07:32.530Z,1.70
2018-02-07T22:09:59.985Z,1.60
2018-02-07T22:12:27.442Z,1.60
2018-02-07T22:14:54.888Z,1.60
2018-02-07T22:17:22.357Z,1.60
2018-02-07T22:19:49.810Z,1.70
2018-02-07T22:22:17.263Z,1.70
2018-02-07T22:24:44.712Z,1.70
2018-02-07T22:27:13.078Z,1.70
2018-02-07T22:29:40.538Z,1.70
2018-02-07T22:32:08.026Z,1.70
2018-02-07T22:34:35.502Z,1.70
2018-02-07T22:37:02.933Z,1.70
2018-02-07T22:39:30.479Z,1.70
2018-02-07T22:41:57.917Z,1.70
2018-02-07T22:44:25.377Z,1.70
2018-02-07T22:46:52.884Z,1.70
2018-02-07T22:49:20.557Z,1.70
2018-02-07T22:51:48.021Z,1.70
2018-02-07T22:54:15.478Z,1.70
2018-02-07T22:56:42.924Z,1.70
2018-02-07T22:59:10.438Z,1.70
2018-02-07T23:01:37.868Z,1.70
2018-02-07T23:04:06.094Z,1.70
2018-02-07T23:06:33.543Z,1.70
2018-02-07T23:09:01.037Z,1.70
2018-02-07T23:11:28.489Z,1.70
2018-02-07T23:13:55.956Z,1.70
2018-02-07T23:16:24.183Z,1.80
2018-02-07T23:18:51.628Z,1.70
2018-02-07T23:21:19.085Z,1.80
2018-02-07T23:23:46.540Z,1.70
2018-02-07T23:26:14.021Z,1.70
2018-02-07T23:28:41.486Z,1.70
2018-02-07T23:31:08.929Z,1.70
2018-02-07T23:33:36.394Z,1.70
2018-02-07T23:36:03.841Z,1.70
2018-02-07T23:38:32.065Z,1.70
2018-02-07T23:41:00.276Z,1.70
2018-02-07T23:43:27.732Z,1.70
2018-02-07T23:45:55.203Z,1.70
2018-02-07T23:48:22.651Z,1.70
2018-02-07T23:50:50.111Z,1.70
2018-02-07T23:53:17.567Z,1.70
2018-02-07T23:55:45.018Z,1.70
2018-02-07T23:58:12.462Z,1.70
